<?xml version="1.0" encoding="UTF-8"?>
<gpx
  version="1.0"
  creator="GPSBabel - http://www.gpsbabel.org"
  xmlns:xsi="http://www.w3.org/2001/XMLSchema-instance"
  xmlns="http://www.topografix.com/GPX/1/0"
  xsi:schemaLocation="http://www.topografix.com/GPX/1/0 http://www.topografix.com/GPX/1/0/gpx.xsd">
<time>2011-07-12T21:46:33Z</time>
<bounds minlat="32.552524567" minlon="34.986103058" maxlat="32.597351074" maxlon="35.013339996"/>
<trk>
  <name>Holux2011/07/12_19:39</name>
<trkseg>
<trkpt lat="32.591045380" lon="35.006778717">
  <ele>45.234680</ele>
  <time>2011-07-12T16:39:51Z</time>
  <speed>1.920000</speed>
</trkpt>
<trkpt lat="32.590858459" lon="35.006828308">
  <ele>47.586243</ele>
  <time>2011-07-12T16:40:00Z</time>
  <speed>1.550000</speed>
</trkpt>
<trkpt lat="32.590717316" lon="35.005950928">
  <ele>41.962219</ele>
  <time>2011-07-12T16:40:30Z</time>
  <speed>3.740000</speed>
</trkpt>
<trkpt lat="32.590637207" lon="35.005294800">
  <ele>39.657532</ele>
  <time>2011-07-12T16:40:46Z</time>
  <speed>3.210000</speed>
</trkpt>
<trkpt lat="32.590724945" lon="35.004703522">
  <ele>34.247375</ele>
  <time>2011-07-12T16:41:00Z</time>
  <speed>4.370000</speed>
</trkpt>
<trkpt lat="32.590682983" lon="35.003993988">
  <ele>30.165192</ele>
  <time>2011-07-12T16:41:11Z</time>
  <speed>8.090000</speed>
</trkpt>
<trkpt lat="32.590396881" lon="35.002677917">
  <ele>31.019196</ele>
  <time>2011-07-12T16:41:26Z</time>
  <speed>7.010000</speed>
</trkpt>
<trkpt lat="32.590576172" lon="35.000957489">
  <ele>33.550110</ele>
  <time>2011-07-12T16:41:49Z</time>
  <speed>6.710000</speed>
</trkpt>
<trkpt lat="32.590633392" lon="34.999111176">
  <ele>36.882141</ele>
  <time>2011-07-12T16:42:16Z</time>
  <speed>5.950000</speed>
</trkpt>
<trkpt lat="32.590518951" lon="34.998592377">
  <ele>36.045227</ele>
  <time>2011-07-12T16:42:24Z</time>
  <speed>6.560000</speed>
</trkpt>
<trkpt lat="32.590000153" lon="34.997295380">
  <ele>32.090149</ele>
  <time>2011-07-12T16:42:46Z</time>
  <speed>6.000000</speed>
</trkpt>
<trkpt lat="32.589885712" lon="34.996852875">
  <ele>31.180817</ele>
  <time>2011-07-12T16:42:54Z</time>
  <speed>5.360000</speed>
</trkpt>
<trkpt lat="32.589405060" lon="34.995803833">
  <ele>31.985016</ele>
  <time>2011-07-12T16:43:12Z</time>
  <speed>6.310000</speed>
</trkpt>
<trkpt lat="32.588752747" lon="34.994972229">
  <ele>36.598938</ele>
  <time>2011-07-12T16:43:32Z</time>
  <speed>4.590000</speed>
</trkpt>
<trkpt lat="32.588253021" lon="34.994636536">
  <ele>40.606750</ele>
  <time>2011-07-12T16:43:50Z</time>
  <speed>3.100000</speed>
</trkpt>
<trkpt lat="32.587589264" lon="34.993995667">
  <ele>46.023743</ele>
  <time>2011-07-12T16:44:22Z</time>
  <speed>3.330000</speed>
</trkpt>
<trkpt lat="32.587207794" lon="34.993801117">
  <ele>47.889954</ele>
  <time>2011-07-12T16:44:36Z</time>
  <speed>3.370000</speed>
</trkpt>
<trkpt lat="32.586803436" lon="34.993255615">
  <ele>47.028625</ele>
  <time>2011-07-12T16:44:52Z</time>
  <speed>4.670000</speed>
</trkpt>
<trkpt lat="32.585945129" lon="34.992313385">
  <ele>49.687805</ele>
  <time>2011-07-12T16:45:24Z</time>
  <speed>3.730000</speed>
</trkpt>
<trkpt lat="32.585533142" lon="34.991931915">
  <ele>51.248352</ele>
  <time>2011-07-12T16:45:40Z</time>
  <speed>3.230000</speed>
</trkpt>
<trkpt lat="32.585243225" lon="34.991779327">
  <ele>53.575500</ele>
  <time>2011-07-12T16:45:57Z</time>
  <speed>1.580000</speed>
</trkpt>
<trkpt lat="32.585052490" lon="34.991950989">
  <ele>53.690735</ele>
  <time>2011-07-12T16:46:10Z</time>
  <speed>3.090000</speed>
</trkpt>
<trkpt lat="32.584930420" lon="34.992542267">
  <ele>59.573547</ele>
  <time>2011-07-12T16:46:40Z</time>
  <speed>1.490000</speed>
</trkpt>
<trkpt lat="32.585273743" lon="34.992767334">
  <ele>68.041626</ele>
  <time>2011-07-12T16:47:04Z</time>
  <speed>1.560000</speed>
</trkpt>
<trkpt lat="32.585269928" lon="34.993057251">
  <ele>73.211548</ele>
  <time>2011-07-12T16:47:37Z</time>
  <speed>1.420000</speed>
</trkpt>
<trkpt lat="32.585479736" lon="34.993377686">
  <ele>76.604126</ele>
  <time>2011-07-12T16:48:00Z</time>
  <speed>1.480000</speed>
</trkpt>
<trkpt lat="32.585445404" lon="34.993583679">
  <ele>79.895142</ele>
  <time>2011-07-12T16:48:15Z</time>
  <speed>0.890000</speed>
</trkpt>
<trkpt lat="32.585506439" lon="34.993862152">
  <ele>83.512329</ele>
  <time>2011-07-12T16:48:37Z</time>
  <speed>1.280000</speed>
</trkpt>
<trkpt lat="32.585678101" lon="34.994163513">
  <ele>85.740845</ele>
  <time>2011-07-12T16:49:02Z</time>
  <speed>1.250000</speed>
</trkpt>
<trkpt lat="32.585369110" lon="34.994476318">
  <ele>91.053345</ele>
  <time>2011-07-12T16:49:43Z</time>
  <speed>1.340000</speed>
</trkpt>
<trkpt lat="32.585094452" lon="34.995094299">
  <ele>96.434204</ele>
  <time>2011-07-12T16:50:31Z</time>
  <speed>1.560000</speed>
</trkpt>
<trkpt lat="32.585323334" lon="34.995380402">
  <ele>104.774048</ele>
  <time>2011-07-12T16:50:52Z</time>
  <speed>1.410000</speed>
</trkpt>
<trkpt lat="32.585559845" lon="34.995288849">
  <ele>105.953735</ele>
  <time>2011-07-12T16:51:10Z</time>
  <speed>1.220000</speed>
</trkpt>
<trkpt lat="32.585655212" lon="34.995319366">
  <ele>107.676392</ele>
  <time>2011-07-12T16:51:17Z</time>
  <speed>1.380000</speed>
</trkpt>
<trkpt lat="32.585674286" lon="34.995738983">
  <ele>109.371704</ele>
  <time>2011-07-12T16:51:48Z</time>
  <speed>1.360000</speed>
</trkpt>
<trkpt lat="32.586257935" lon="34.995746613">
  <ele>112.238892</ele>
  <time>2011-07-12T16:52:19Z</time>
  <speed>1.810000</speed>
</trkpt>
<trkpt lat="32.586494446" lon="34.995822906">
  <ele>115.195923</ele>
  <time>2011-07-12T16:52:33Z</time>
  <speed>1.940000</speed>
</trkpt>
<trkpt lat="32.586631775" lon="34.995742798">
  <ele>111.387329</ele>
  <time>2011-07-12T16:52:38Z</time>
  <speed>4.570000</speed>
</trkpt>
<trkpt lat="32.586719513" lon="34.995819092">
  <ele>111.469360</ele>
  <time>2011-07-12T16:52:41Z</time>
  <speed>3.440000</speed>
</trkpt>
<trkpt lat="32.586711884" lon="34.995990753">
  <ele>112.061157</ele>
  <time>2011-07-12T16:52:48Z</time>
  <speed>2.140000</speed>
</trkpt>
<trkpt lat="32.586624146" lon="34.996101379">
  <ele>111.877563</ele>
  <time>2011-07-12T16:52:57Z</time>
  <speed>1.160000</speed>
</trkpt>
<trkpt lat="32.586635590" lon="34.996303558">
  <ele>113.258423</ele>
  <time>2011-07-12T16:53:11Z</time>
  <speed>1.120000</speed>
</trkpt>
<trkpt lat="32.586677551" lon="34.996391296">
  <ele>118.486938</ele>
  <time>2011-07-12T16:53:17Z</time>
  <speed>1.660000</speed>
</trkpt>
<trkpt lat="32.586727142" lon="34.996444702">
  <ele>118.369751</ele>
  <time>2011-07-12T16:53:21Z</time>
  <speed>1.640000</speed>
</trkpt>
<trkpt lat="32.586845398" lon="34.996936798">
  <ele>128.696533</ele>
  <time>2011-07-12T16:53:52Z</time>
  <speed>1.260000</speed>
</trkpt>
<trkpt lat="32.586711884" lon="34.997226715">
  <ele>131.348877</ele>
  <time>2011-07-12T16:54:15Z</time>
  <speed>1.370000</speed>
</trkpt>
<trkpt lat="32.586711884" lon="34.997379303">
  <ele>132.544189</ele>
  <time>2011-07-12T16:54:25Z</time>
  <speed>1.180000</speed>
</trkpt>
<trkpt lat="32.586772919" lon="34.997394562">
  <ele>134.438721</ele>
  <time>2011-07-12T16:54:29Z</time>
  <speed>1.440000</speed>
</trkpt>
<trkpt lat="32.587448120" lon="34.996833801">
  <ele>133.286377</ele>
  <time>2011-07-12T16:55:17Z</time>
  <speed>2.440000</speed>
</trkpt>
<trkpt lat="32.587669373" lon="34.996788025">
  <ele>135.462158</ele>
  <time>2011-07-12T16:55:31Z</time>
  <speed>1.760000</speed>
</trkpt>
<trkpt lat="32.587802887" lon="34.996925354">
  <ele>136.868408</ele>
  <time>2011-07-12T16:55:45Z</time>
  <speed>1.490000</speed>
</trkpt>
<trkpt lat="32.587688446" lon="34.997989655">
  <ele>149.110596</ele>
  <time>2011-07-12T16:56:53Z</time>
  <speed>1.200000</speed>
</trkpt>
<trkpt lat="32.587635040" lon="34.998199463">
  <ele>153.040283</ele>
  <time>2011-07-12T16:57:10Z</time>
  <speed>1.370000</speed>
</trkpt>
<trkpt lat="32.587528229" lon="34.998329163">
  <ele>155.040283</ele>
  <time>2011-07-12T16:57:24Z</time>
  <speed>1.060000</speed>
</trkpt>
<trkpt lat="32.587665558" lon="34.998920441">
  <ele>163.458252</ele>
  <time>2011-07-12T16:58:13Z</time>
  <speed>1.150000</speed>
</trkpt>
<trkpt lat="32.588039398" lon="34.999389648">
  <ele>169.969971</ele>
  <time>2011-07-12T16:58:55Z</time>
  <speed>1.570000</speed>
</trkpt>
<trkpt lat="32.588157654" lon="34.999664307">
  <ele>169.266846</ele>
  <time>2011-07-12T16:59:14Z</time>
  <speed>1.220000</speed>
</trkpt>
<trkpt lat="32.588115692" lon="35.000007629">
  <ele>169.091064</ele>
  <time>2011-07-12T16:59:36Z</time>
  <speed>1.570000</speed>
</trkpt>
<trkpt lat="32.588256836" lon="35.000869751">
  <ele>168.063721</ele>
  <time>2011-07-12T17:00:13Z</time>
  <speed>3.510000</speed>
</trkpt>
<trkpt lat="32.588218689" lon="35.001155853">
  <ele>166.278564</ele>
  <time>2011-07-12T17:00:20Z</time>
  <speed>4.630000</speed>
</trkpt>
<trkpt lat="32.588272095" lon="35.001350403">
  <ele>164.341064</ele>
  <time>2011-07-12T17:00:24Z</time>
  <speed>5.290000</speed>
</trkpt>
<trkpt lat="32.588184357" lon="35.002025604">
  <ele>150.048096</ele>
  <time>2011-07-12T17:00:39Z</time>
  <speed>6.770000</speed>
</trkpt>
<trkpt lat="32.587902069" lon="35.002353668">
  <ele>146.462158</ele>
  <time>2011-07-12T17:00:46Z</time>
  <speed>5.020000</speed>
</trkpt>
<trkpt lat="32.587783813" lon="35.002750397">
  <ele>142.145752</ele>
  <time>2011-07-12T17:01:44Z</time>
  <speed>0.060000</speed>
</trkpt>
<trkpt lat="32.587345123" lon="35.002727509">
  <ele>140.626221</ele>
  <time>2011-07-12T17:04:53Z</time>
  <speed>7.210000</speed>
</trkpt>
<trkpt lat="32.586658478" lon="35.002864838">
  <ele>137.231689</ele>
  <time>2011-07-12T17:05:03Z</time>
  <speed>6.750000</speed>
</trkpt>
<trkpt lat="32.586288452" lon="35.003147125">
  <ele>134.540283</ele>
  <time>2011-07-12T17:05:10Z</time>
  <speed>6.320000</speed>
</trkpt>
<trkpt lat="32.585655212" lon="35.004112244">
  <ele>135.802002</ele>
  <time>2011-07-12T17:05:42Z</time>
  <speed>3.220000</speed>
</trkpt>
<trkpt lat="32.585151672" lon="35.005191803">
  <ele>143.438721</ele>
  <time>2011-07-12T17:06:31Z</time>
  <speed>2.690000</speed>
</trkpt>
<trkpt lat="32.584606171" lon="35.006118774">
  <ele>146.438721</ele>
  <time>2011-07-12T17:07:19Z</time>
  <speed>1.960000</speed>
</trkpt>
<trkpt lat="32.584575653" lon="35.006328583">
  <ele>149.794189</ele>
  <time>2011-07-12T17:07:27Z</time>
  <speed>1.780000</speed>
</trkpt>
<trkpt lat="32.583835602" lon="35.007568359">
  <ele>165.919189</ele>
  <time>2011-07-12T17:08:41Z</time>
  <speed>1.730000</speed>
</trkpt>
<trkpt lat="32.583827972" lon="35.008178711">
  <ele>168.903564</ele>
  <time>2011-07-12T17:09:11Z</time>
  <speed>1.940000</speed>
</trkpt>
<trkpt lat="32.584033966" lon="35.009246826">
  <ele>169.266846</ele>
  <time>2011-07-12T17:09:54Z</time>
  <speed>2.840000</speed>
</trkpt>
<trkpt lat="32.584205627" lon="35.009784698">
  <ele>170.864502</ele>
  <time>2011-07-12T17:10:13Z</time>
  <speed>2.960000</speed>
</trkpt>
<trkpt lat="32.584560394" lon="35.010272980">
  <ele>174.856689</ele>
  <time>2011-07-12T17:10:40Z</time>
  <speed>1.560000</speed>
</trkpt>
<trkpt lat="32.584522247" lon="35.010490417">
  <ele>172.856689</ele>
  <time>2011-07-12T17:10:46Z</time>
  <speed>4.920000</speed>
</trkpt>
<trkpt lat="32.584583282" lon="35.010810852">
  <ele>170.844971</ele>
  <time>2011-07-12T17:10:50Z</time>
  <speed>7.620000</speed>
</trkpt>
<trkpt lat="32.584552765" lon="35.010963440">
  <ele>169.259033</ele>
  <time>2011-07-12T17:10:52Z</time>
  <speed>6.990000</speed>
</trkpt>
<trkpt lat="32.584335327" lon="35.011188507">
  <ele>165.927002</ele>
  <time>2011-07-12T17:10:56Z</time>
  <speed>7.730000</speed>
</trkpt>
<trkpt lat="32.584243774" lon="35.011486053">
  <ele>163.391846</ele>
  <time>2011-07-12T17:11:00Z</time>
  <speed>6.340000</speed>
</trkpt>
<trkpt lat="32.584068298" lon="35.011539459">
  <ele>159.141846</ele>
  <time>2011-07-12T17:11:04Z</time>
  <speed>4.410000</speed>
</trkpt>
<trkpt lat="32.584041595" lon="35.011749268">
  <ele>157.649658</ele>
  <time>2011-07-12T17:11:08Z</time>
  <speed>4.350000</speed>
</trkpt>
<trkpt lat="32.583770752" lon="35.012077332">
  <ele>156.887939</ele>
  <time>2011-07-12T17:11:17Z</time>
  <speed>4.180000</speed>
</trkpt>
<trkpt lat="32.583385468" lon="35.012298584">
  <ele>162.016846</ele>
  <time>2011-07-12T17:11:30Z</time>
  <speed>2.950000</speed>
</trkpt>
<trkpt lat="32.583213806" lon="35.012504578">
  <ele>162.559814</ele>
  <time>2011-07-12T17:11:39Z</time>
  <speed>3.620000</speed>
</trkpt>
<trkpt lat="32.583072662" lon="35.012542725">
  <ele>161.751221</ele>
  <time>2011-07-12T17:11:44Z</time>
  <speed>2.930000</speed>
</trkpt>
<trkpt lat="32.582912445" lon="35.012825012">
  <ele>160.134033</ele>
  <time>2011-07-12T17:11:52Z</time>
  <speed>4.750000</speed>
</trkpt>
<trkpt lat="32.582595825" lon="35.013050079">
  <ele>157.770752</ele>
  <time>2011-07-12T17:12:00Z</time>
  <speed>4.640000</speed>
</trkpt>
<trkpt lat="32.582473755" lon="35.013084412">
  <ele>155.946533</ele>
  <time>2011-07-12T17:12:03Z</time>
  <speed>5.110000</speed>
</trkpt>
<trkpt lat="32.582271576" lon="35.013122559">
  <ele>156.294189</ele>
  <time>2011-07-12T17:12:07Z</time>
  <speed>5.100000</speed>
</trkpt>
<trkpt lat="32.582077026" lon="35.013015747">
  <ele>157.399658</ele>
  <time>2011-07-12T17:12:12Z</time>
  <speed>4.560000</speed>
</trkpt>
<trkpt lat="32.581626892" lon="35.012950897">
  <ele>154.708252</ele>
  <time>2011-07-12T17:12:23Z</time>
  <speed>4.360000</speed>
</trkpt>
<trkpt lat="32.581108093" lon="35.013103485">
  <ele>148.251221</ele>
  <time>2011-07-12T17:12:35Z</time>
  <speed>6.060000</speed>
</trkpt>
<trkpt lat="32.580753326" lon="35.013053894">
  <ele>143.282471</ele>
  <time>2011-07-12T17:12:41Z</time>
  <speed>6.420000</speed>
</trkpt>
<trkpt lat="32.580429077" lon="35.012428284">
  <ele>142.829346</ele>
  <time>2011-07-12T17:13:00Z</time>
  <speed>2.800000</speed>
</trkpt>
<trkpt lat="32.580093384" lon="35.012165070">
  <ele>147.579346</ele>
  <time>2011-07-12T17:13:13Z</time>
  <speed>3.270000</speed>
</trkpt>
<trkpt lat="32.579826355" lon="35.012088776">
  <ele>149.102783</ele>
  <time>2011-07-12T17:13:26Z</time>
  <speed>0.140000</speed>
</trkpt>
<trkpt lat="32.579814911" lon="35.012142181">
  <ele>153.161377</ele>
  <time>2011-07-12T17:16:54Z</time>
  <speed>1.720000</speed>
</trkpt>
<trkpt lat="32.579647064" lon="35.012153625">
  <ele>155.794189</ele>
  <time>2011-07-12T17:17:04Z</time>
  <speed>1.690000</speed>
</trkpt>
<trkpt lat="32.579544067" lon="35.012245178">
  <ele>156.110596</ele>
  <time>2011-07-12T17:17:12Z</time>
  <speed>1.520000</speed>
</trkpt>
<trkpt lat="32.579517365" lon="35.012504578">
  <ele>154.145752</ele>
  <time>2011-07-12T17:17:22Z</time>
  <speed>3.600000</speed>
</trkpt>
<trkpt lat="32.579193115" lon="35.012916565">
  <ele>153.798096</ele>
  <time>2011-07-12T17:17:41Z</time>
  <speed>1.990000</speed>
</trkpt>
<trkpt lat="32.578887939" lon="35.012886047">
  <ele>158.938721</ele>
  <time>2011-07-12T17:17:59Z</time>
  <speed>1.420000</speed>
</trkpt>
<trkpt lat="32.578681946" lon="35.012962341">
  <ele>163.302002</ele>
  <time>2011-07-12T17:19:54Z</time>
  <speed>1.470000</speed>
</trkpt>
<trkpt lat="32.578227997" lon="35.012989044">
  <ele>173.145752</ele>
  <time>2011-07-12T17:20:24Z</time>
  <speed>1.610000</speed>
</trkpt>
<trkpt lat="32.577098846" lon="35.012908936">
  <ele>178.817627</ele>
  <time>2011-07-12T17:21:35Z</time>
  <speed>1.550000</speed>
</trkpt>
<trkpt lat="32.577056885" lon="35.012851715">
  <ele>181.977783</ele>
  <time>2011-07-12T17:22:58Z</time>
  <speed>2.120000</speed>
</trkpt>
<trkpt lat="32.577274323" lon="35.012680054">
  <ele>177.298096</ele>
  <time>2011-07-12T17:23:06Z</time>
  <speed>4.310000</speed>
</trkpt>
<trkpt lat="32.577350616" lon="35.012531281">
  <ele>175.614502</ele>
  <time>2011-07-12T17:23:09Z</time>
  <speed>5.800000</speed>
</trkpt>
<trkpt lat="32.577518463" lon="35.011131287">
  <ele>171.399658</ele>
  <time>2011-07-12T17:23:25Z</time>
  <speed>8.260000</speed>
</trkpt>
<trkpt lat="32.577713013" lon="35.010635376">
  <ele>169.630127</ele>
  <time>2011-07-12T17:23:32Z</time>
  <speed>7.270000</speed>
</trkpt>
<trkpt lat="32.577960968" lon="35.010353088">
  <ele>171.368408</ele>
  <time>2011-07-12T17:23:38Z</time>
  <speed>6.830000</speed>
</trkpt>
<trkpt lat="32.578102112" lon="35.010036469">
  <ele>170.594971</ele>
  <time>2011-07-12T17:23:43Z</time>
  <speed>6.230000</speed>
</trkpt>
<trkpt lat="32.578277588" lon="35.009094238">
  <ele>165.669189</ele>
  <time>2011-07-12T17:23:54Z</time>
  <speed>8.610000</speed>
</trkpt>
<trkpt lat="32.578247070" lon="35.008491516">
  <ele>162.762939</ele>
  <time>2011-07-12T17:24:01Z</time>
  <speed>6.930000</speed>
</trkpt>
<trkpt lat="32.578388214" lon="35.008285522">
  <ele>159.719971</ele>
  <time>2011-07-12T17:24:06Z</time>
  <speed>3.700000</speed>
</trkpt>
<trkpt lat="32.578174591" lon="35.007778168">
  <ele>157.286377</ele>
  <time>2011-07-12T17:24:15Z</time>
  <speed>7.040000</speed>
</trkpt>
<trkpt lat="32.578205109" lon="35.007320404">
  <ele>158.348877</ele>
  <time>2011-07-12T17:24:21Z</time>
  <speed>8.060000</speed>
</trkpt>
<trkpt lat="32.578098297" lon="35.006538391">
  <ele>159.411377</ele>
  <time>2011-07-12T17:24:30Z</time>
  <speed>8.290000</speed>
</trkpt>
<trkpt lat="32.577472687" lon="35.004970551">
  <ele>146.438721</ele>
  <time>2011-07-12T17:24:50Z</time>
  <speed>7.370000</speed>
</trkpt>
<trkpt lat="32.577461243" lon="35.003784180">
  <ele>138.848877</ele>
  <time>2011-07-12T17:25:09Z</time>
  <speed>4.050000</speed>
</trkpt>
<trkpt lat="32.577392578" lon="35.003627777">
  <ele>136.122314</ele>
  <time>2011-07-12T17:25:13Z</time>
  <speed>2.890000</speed>
</trkpt>
<trkpt lat="32.577220917" lon="35.003494263">
  <ele>136.942627</ele>
  <time>2011-07-12T17:25:17Z</time>
  <speed>5.080000</speed>
</trkpt>
<trkpt lat="32.577236176" lon="35.002834320">
  <ele>129.091064</ele>
  <time>2011-07-12T17:25:29Z</time>
  <speed>4.470000</speed>
</trkpt>
<trkpt lat="32.577014923" lon="35.002475739">
  <ele>123.924438</ele>
  <time>2011-07-12T17:25:59Z</time>
  <speed>0.630000</speed>
</trkpt>
<trkpt lat="32.577045441" lon="35.002399445">
  <ele>126.766235</ele>
  <time>2011-07-12T17:26:54Z</time>
</trkpt>
<trkpt lat="32.576904297" lon="35.002330780">
  <ele>128.450439</ele>
  <time>2011-07-12T17:29:32Z</time>
  <speed>3.780000</speed>
</trkpt>
<trkpt lat="32.576572418" lon="35.001842499">
  <ele>122.776001</ele>
  <time>2011-07-12T17:29:42Z</time>
  <speed>7.330000</speed>
</trkpt>
<trkpt lat="32.576229095" lon="35.001552582">
  <ele>119.561157</ele>
  <time>2011-07-12T17:29:48Z</time>
  <speed>8.040000</speed>
</trkpt>
<trkpt lat="32.575744629" lon="35.001300812">
  <ele>117.608032</ele>
  <time>2011-07-12T17:29:55Z</time>
  <speed>8.360000</speed>
</trkpt>
<trkpt lat="32.575279236" lon="35.001296997">
  <ele>112.158813</ele>
  <time>2011-07-12T17:30:01Z</time>
  <speed>8.420000</speed>
</trkpt>
<trkpt lat="32.574867249" lon="35.001476288">
  <ele>110.754517</ele>
  <time>2011-07-12T17:30:08Z</time>
  <speed>3.700000</speed>
</trkpt>
<trkpt lat="32.574783325" lon="35.001461029">
  <ele>112.154907</ele>
  <time>2011-07-12T17:30:12Z</time>
  <speed>2.590000</speed>
</trkpt>
<trkpt lat="32.574703217" lon="35.000270844">
  <ele>123.625610</ele>
  <time>2011-07-12T17:31:15Z</time>
  <speed>1.370000</speed>
</trkpt>
<trkpt lat="32.574539185" lon="34.999908447">
  <ele>130.391846</ele>
  <time>2011-07-12T17:31:42Z</time>
  <speed>1.520000</speed>
</trkpt>
<trkpt lat="32.573703766" lon="34.999782562">
  <ele>134.712158</ele>
  <time>2011-07-12T17:32:21Z</time>
  <speed>3.030000</speed>
</trkpt>
<trkpt lat="32.570175171" lon="34.997547150">
  <ele>115.793579</ele>
  <time>2011-07-12T17:33:38Z</time>
  <speed>9.420000</speed>
</trkpt>
<trkpt lat="32.569427490" lon="34.997085571">
  <ele>115.758423</ele>
  <time>2011-07-12T17:33:49Z</time>
  <speed>7.790000</speed>
</trkpt>
<trkpt lat="32.568866730" lon="34.996444702">
  <ele>115.188110</ele>
  <time>2011-07-12T17:34:00Z</time>
  <speed>8.100000</speed>
</trkpt>
<trkpt lat="32.568290710" lon="34.995941162">
  <ele>113.736938</ele>
  <time>2011-07-12T17:34:13Z</time>
  <speed>2.430000</speed>
</trkpt>
<trkpt lat="32.568157196" lon="34.995738983">
  <ele>111.045532</ele>
  <time>2011-07-12T17:34:20Z</time>
  <speed>3.230000</speed>
</trkpt>
<trkpt lat="32.567214966" lon="34.994983673">
  <ele>107.225220</ele>
  <time>2011-07-12T17:34:44Z</time>
  <speed>4.350000</speed>
</trkpt>
<trkpt lat="32.567127228" lon="34.994804382">
  <ele>107.272095</ele>
  <time>2011-07-12T17:34:47Z</time>
  <speed>4.820000</speed>
</trkpt>
<trkpt lat="32.566913605" lon="34.994613647">
  <ele>105.395142</ele>
  <time>2011-07-12T17:34:53Z</time>
  <speed>3.660000</speed>
</trkpt>
<trkpt lat="32.566738129" lon="34.994560242">
  <ele>100.617798</ele>
  <time>2011-07-12T17:35:01Z</time>
  <speed>0.920000</speed>
</trkpt>
<trkpt lat="32.566242218" lon="34.995002747">
  <ele>105.604126</ele>
  <time>2011-07-12T17:35:41Z</time>
  <speed>1.490000</speed>
</trkpt>
<trkpt lat="32.566017151" lon="34.995307922">
  <ele>107.826782</ele>
  <time>2011-07-12T17:36:02Z</time>
  <speed>1.760000</speed>
</trkpt>
<trkpt lat="32.565864563" lon="34.995388031">
  <ele>108.926392</ele>
  <time>2011-07-12T17:36:13Z</time>
  <speed>1.630000</speed>
</trkpt>
<trkpt lat="32.565711975" lon="34.995208740">
  <ele>109.656860</ele>
  <time>2011-07-12T17:36:26Z</time>
  <speed>1.950000</speed>
</trkpt>
<trkpt lat="32.565555573" lon="34.994846344">
  <ele>113.027954</ele>
  <time>2011-07-12T17:36:48Z</time>
  <speed>1.370000</speed>
</trkpt>
<trkpt lat="32.565498352" lon="34.994483948">
  <ele>117.629517</ele>
  <time>2011-07-12T17:37:10Z</time>
  <speed>1.610000</speed>
</trkpt>
<trkpt lat="32.565341949" lon="34.994266510">
  <ele>122.459595</ele>
  <time>2011-07-12T17:37:28Z</time>
  <speed>1.490000</speed>
</trkpt>
<trkpt lat="32.565231323" lon="34.994445801">
  <ele>125.072876</ele>
  <time>2011-07-12T17:37:41Z</time>
  <speed>1.280000</speed>
</trkpt>
<trkpt lat="32.564968109" lon="34.994640350">
  <ele>130.204346</ele>
  <time>2011-07-12T17:38:04Z</time>
  <speed>1.500000</speed>
</trkpt>
<trkpt lat="32.564632416" lon="34.995231628">
  <ele>132.427002</ele>
  <time>2011-07-12T17:38:53Z</time>
  <speed>1.910000</speed>
</trkpt>
<trkpt lat="32.564155579" lon="34.994518280">
  <ele>138.134033</ele>
  <time>2011-07-12T17:39:36Z</time>
  <speed>4.160000</speed>
</trkpt>
<trkpt lat="32.563831329" lon="34.994243622">
  <ele>133.106689</ele>
  <time>2011-07-12T17:39:45Z</time>
  <speed>3.380000</speed>
</trkpt>
<trkpt lat="32.563667297" lon="34.994178772">
  <ele>130.587158</ele>
  <time>2011-07-12T17:39:53Z</time>
  <speed>1.120000</speed>
</trkpt>
<trkpt lat="32.563751221" lon="34.993629456">
  <ele>132.583252</ele>
  <time>2011-07-12T17:41:45Z</time>
  <speed>2.630000</speed>
</trkpt>
<trkpt lat="32.563552856" lon="34.993179321">
  <ele>137.469971</ele>
  <time>2011-07-12T17:42:10Z</time>
  <speed>1.950000</speed>
</trkpt>
<trkpt lat="32.563701630" lon="34.992977142">
  <ele>141.708252</ele>
  <time>2011-07-12T17:42:25Z</time>
  <speed>1.400000</speed>
</trkpt>
<trkpt lat="32.563632965" lon="34.992374420">
  <ele>148.864502</ele>
  <time>2011-07-12T17:43:03Z</time>
  <speed>1.530000</speed>
</trkpt>
<trkpt lat="32.563728333" lon="34.992229462">
  <ele>151.653564</ele>
  <time>2011-07-12T17:43:15Z</time>
  <speed>1.580000</speed>
</trkpt>
<trkpt lat="32.563713074" lon="34.992126465">
  <ele>154.270752</ele>
  <time>2011-07-12T17:43:22Z</time>
  <speed>1.240000</speed>
</trkpt>
<trkpt lat="32.563369751" lon="34.992126465">
  <ele>152.481689</ele>
  <time>2011-07-12T17:43:41Z</time>
  <speed>2.350000</speed>
</trkpt>
<trkpt lat="32.562866211" lon="34.991794586">
  <ele>152.802002</ele>
  <time>2011-07-12T17:44:09Z</time>
  <speed>1.930000</speed>
</trkpt>
<trkpt lat="32.562702179" lon="34.991271973">
  <ele>152.864502</ele>
  <time>2011-07-12T17:44:28Z</time>
  <speed>2.400000</speed>
</trkpt>
<trkpt lat="32.562698364" lon="34.990970612">
  <ele>155.219971</ele>
  <time>2011-07-12T17:44:45Z</time>
  <speed>1.050000</speed>
</trkpt>
<trkpt lat="32.562778473" lon="34.990947723">
  <ele>157.821533</ele>
  <time>2011-07-12T17:44:52Z</time>
  <speed>1.050000</speed>
</trkpt>
<trkpt lat="32.562377930" lon="34.990390778">
  <ele>155.727783</ele>
  <time>2011-07-12T17:45:52Z</time>
  <speed>6.990000</speed>
</trkpt>
<trkpt lat="32.562191010" lon="34.989948273">
  <ele>154.626221</ele>
  <time>2011-07-12T17:45:59Z</time>
  <speed>5.610000</speed>
</trkpt>
<trkpt lat="32.561965942" lon="34.989692688">
  <ele>153.149658</ele>
  <time>2011-07-12T17:46:05Z</time>
  <speed>6.000000</speed>
</trkpt>
<trkpt lat="32.561737061" lon="34.989208221">
  <ele>152.313721</ele>
  <time>2011-07-12T17:46:15Z</time>
  <speed>5.160000</speed>
</trkpt>
<trkpt lat="32.561374664" lon="34.988918304">
  <ele>149.622314</ele>
  <time>2011-07-12T17:46:25Z</time>
  <speed>4.500000</speed>
</trkpt>
<trkpt lat="32.560970306" lon="34.988803864">
  <ele>144.395752</ele>
  <time>2011-07-12T17:46:36Z</time>
  <speed>4.710000</speed>
</trkpt>
<trkpt lat="32.560493469" lon="34.988346100">
  <ele>138.360596</ele>
  <time>2011-07-12T17:46:49Z</time>
  <speed>5.150000</speed>
</trkpt>
<trkpt lat="32.560089111" lon="34.988204956">
  <ele>136.919189</ele>
  <time>2011-07-12T17:47:01Z</time>
  <speed>1.070000</speed>
</trkpt>
<trkpt lat="32.559993744" lon="34.988304138">
  <ele>138.446533</ele>
  <time>2011-07-12T17:47:36Z</time>
  <speed>2.640000</speed>
</trkpt>
<trkpt lat="32.559799194" lon="34.988357544">
  <ele>137.454346</ele>
  <time>2011-07-12T17:47:43Z</time>
  <speed>3.980000</speed>
</trkpt>
<trkpt lat="32.559394836" lon="34.988330841">
  <ele>135.161377</ele>
  <time>2011-07-12T17:47:52Z</time>
  <speed>4.220000</speed>
</trkpt>
<trkpt lat="32.559242249" lon="34.988380432">
  <ele>132.587158</ele>
  <time>2011-07-12T17:47:56Z</time>
  <speed>4.790000</speed>
</trkpt>
<trkpt lat="32.559070587" lon="34.988246918">
  <ele>130.348877</ele>
  <time>2011-07-12T17:48:01Z</time>
  <speed>4.100000</speed>
</trkpt>
<trkpt lat="32.558849335" lon="34.988193512">
  <ele>127.858032</ele>
  <time>2011-07-12T17:48:07Z</time>
  <speed>5.040000</speed>
</trkpt>
<trkpt lat="32.558780670" lon="34.988094330">
  <ele>126.598267</ele>
  <time>2011-07-12T17:48:10Z</time>
  <speed>3.650000</speed>
</trkpt>
<trkpt lat="32.558631897" lon="34.988174438">
  <ele>125.752563</ele>
  <time>2011-07-12T17:48:15Z</time>
  <speed>3.480000</speed>
</trkpt>
<trkpt lat="32.558399200" lon="34.988082886">
  <ele>124.508423</ele>
  <time>2011-07-12T17:48:22Z</time>
  <speed>4.660000</speed>
</trkpt>
<trkpt lat="32.558311462" lon="34.987979889">
  <ele>122.055298</ele>
  <time>2011-07-12T17:48:25Z</time>
  <speed>4.760000</speed>
</trkpt>
<trkpt lat="32.558032990" lon="34.987926483">
  <ele>119.631470</ele>
  <time>2011-07-12T17:48:31Z</time>
  <speed>2.850000</speed>
</trkpt>
<trkpt lat="32.557971954" lon="34.987777710">
  <ele>117.266235</ele>
  <time>2011-07-12T17:48:35Z</time>
  <speed>5.630000</speed>
</trkpt>
<trkpt lat="32.557785034" lon="34.987716675">
  <ele>113.820923</ele>
  <time>2011-07-12T17:48:39Z</time>
  <speed>4.740000</speed>
</trkpt>
<trkpt lat="32.557651520" lon="34.987590790">
  <ele>111.215454</ele>
  <time>2011-07-12T17:48:43Z</time>
  <speed>4.270000</speed>
</trkpt>
<trkpt lat="32.557334900" lon="34.987667084">
  <ele>106.250610</ele>
  <time>2011-07-12T17:48:51Z</time>
  <speed>4.780000</speed>
</trkpt>
<trkpt lat="32.557067871" lon="34.987621307">
  <ele>100.867798</ele>
  <time>2011-07-12T17:48:58Z</time>
  <speed>3.410000</speed>
</trkpt>
<trkpt lat="32.556991577" lon="34.987709045">
  <ele>97.387329</ele>
  <time>2011-07-12T17:49:02Z</time>
  <speed>3.980000</speed>
</trkpt>
<trkpt lat="32.556831360" lon="34.987747192">
  <ele>96.049438</ele>
  <time>2011-07-12T17:49:07Z</time>
  <speed>4.250000</speed>
</trkpt>
<trkpt lat="32.556735992" lon="34.987915039">
  <ele>95.252563</ele>
  <time>2011-07-12T17:49:12Z</time>
  <speed>4.480000</speed>
</trkpt>
<trkpt lat="32.556583405" lon="34.987926483">
  <ele>94.176392</ele>
  <time>2011-07-12T17:49:16Z</time>
  <speed>3.400000</speed>
</trkpt>
<trkpt lat="32.556217194" lon="34.987606049">
  <ele>92.469360</ele>
  <time>2011-07-12T17:49:26Z</time>
  <speed>5.800000</speed>
</trkpt>
<trkpt lat="32.555923462" lon="34.987506866">
  <ele>90.584595</ele>
  <time>2011-07-12T17:49:32Z</time>
  <speed>5.120000</speed>
</trkpt>
<trkpt lat="32.555881500" lon="34.987503052">
  <ele>89.967407</ele>
  <time>2011-07-12T17:49:33Z</time>
  <speed>4.270000</speed>
</trkpt>
<trkpt lat="32.555797577" lon="34.987564087">
  <ele>88.633423</ele>
  <time>2011-07-12T17:49:36Z</time>
  <speed>3.450000</speed>
</trkpt>
<trkpt lat="32.555500031" lon="34.987472534">
  <ele>86.680298</ele>
  <time>2011-07-12T17:49:44Z</time>
  <speed>3.870000</speed>
</trkpt>
<trkpt lat="32.554977417" lon="34.987178802">
  <ele>89.133423</ele>
  <time>2011-07-12T17:49:59Z</time>
  <speed>3.980000</speed>
</trkpt>
<trkpt lat="32.554538727" lon="34.986778259">
  <ele>92.988892</ele>
  <time>2011-07-12T17:50:14Z</time>
  <speed>4.030000</speed>
</trkpt>
<trkpt lat="32.554466248" lon="34.986549377">
  <ele>94.590454</ele>
  <time>2011-07-12T17:50:19Z</time>
  <speed>4.560000</speed>
</trkpt>
<trkpt lat="32.554264069" lon="34.986370087">
  <ele>95.707642</ele>
  <time>2011-07-12T17:50:27Z</time>
  <speed>2.290000</speed>
</trkpt>
<trkpt lat="32.554092407" lon="34.986358643">
  <ele>93.922485</ele>
  <time>2011-07-12T17:50:32Z</time>
  <speed>2.910000</speed>
</trkpt>
<trkpt lat="32.553901672" lon="34.986167908">
  <ele>96.662720</ele>
  <time>2011-07-12T17:50:38Z</time>
  <speed>3.030000</speed>
</trkpt>
<trkpt lat="32.553672791" lon="34.986240387">
  <ele>94.309204</ele>
  <time>2011-07-12T17:50:46Z</time>
  <speed>2.570000</speed>
</trkpt>
<trkpt lat="32.553638458" lon="34.986103058">
  <ele>95.621704</ele>
  <time>2011-07-12T17:50:54Z</time>
  <speed>0.190000</speed>
</trkpt>
<trkpt lat="32.553001404" lon="34.986404419">
  <ele>92.916626</ele>
  <time>2011-07-12T17:54:17Z</time>
  <speed>6.790000</speed>
</trkpt>
<trkpt lat="32.552581787" lon="34.986865997">
  <ele>87.121704</ele>
  <time>2011-07-12T17:54:25Z</time>
  <speed>8.090000</speed>
</trkpt>
<trkpt lat="32.552524567" lon="34.987018585">
  <ele>84.777954</ele>
  <time>2011-07-12T17:54:27Z</time>
  <speed>7.020000</speed>
</trkpt>
<trkpt lat="32.552547455" lon="34.988048553">
  <ele>73.678345</ele>
  <time>2011-07-12T17:54:39Z</time>
  <speed>7.970000</speed>
</trkpt>
<trkpt lat="32.552680969" lon="34.988578796">
  <ele>71.065063</ele>
  <time>2011-07-12T17:54:45Z</time>
  <speed>8.300000</speed>
</trkpt>
<trkpt lat="32.552909851" lon="34.989051819">
  <ele>71.238892</ele>
  <time>2011-07-12T17:54:51Z</time>
  <speed>7.460000</speed>
</trkpt>
<trkpt lat="32.553428650" lon="34.989406586">
  <ele>76.649048</ele>
  <time>2011-07-12T17:55:03Z</time>
  <speed>4.790000</speed>
</trkpt>
<trkpt lat="32.553974152" lon="34.989517212">
  <ele>79.879517</ele>
  <time>2011-07-12T17:55:18Z</time>
  <speed>3.060000</speed>
</trkpt>
<trkpt lat="32.554183960" lon="34.989635468">
  <ele>82.973267</ele>
  <time>2011-07-12T17:55:28Z</time>
  <speed>2.600000</speed>
</trkpt>
<trkpt lat="32.554702759" lon="34.990352631">
  <ele>83.555298</ele>
  <time>2011-07-12T17:55:56Z</time>
  <speed>3.340000</speed>
</trkpt>
<trkpt lat="32.555015564" lon="34.991020203">
  <ele>78.106079</ele>
  <time>2011-07-12T17:56:18Z</time>
  <speed>3.560000</speed>
</trkpt>
<trkpt lat="32.555282593" lon="34.991313934">
  <ele>81.180298</ele>
  <time>2011-07-12T17:56:30Z</time>
  <speed>3.380000</speed>
</trkpt>
<trkpt lat="32.555770874" lon="34.991683960">
  <ele>83.143188</ele>
  <time>2011-07-12T17:56:48Z</time>
  <speed>2.700000</speed>
</trkpt>
<trkpt lat="32.556152344" lon="34.991752625">
  <ele>87.813110</ele>
  <time>2011-07-12T17:57:06Z</time>
  <speed>1.930000</speed>
</trkpt>
<trkpt lat="32.556632996" lon="34.991390228">
  <ele>87.598267</ele>
  <time>2011-07-12T17:57:39Z</time>
  <speed>1.900000</speed>
</trkpt>
<trkpt lat="32.556797028" lon="34.991447449">
  <ele>89.094360</ele>
  <time>2011-07-12T17:57:49Z</time>
  <speed>2.550000</speed>
</trkpt>
<trkpt lat="32.557125092" lon="34.991817474">
  <ele>93.442017</ele>
  <time>2011-07-12T17:58:05Z</time>
  <speed>1.990000</speed>
</trkpt>
<trkpt lat="32.557106018" lon="34.992309570">
  <ele>87.813110</ele>
  <time>2011-07-12T17:58:19Z</time>
  <speed>4.740000</speed>
</trkpt>
<trkpt lat="32.557434082" lon="34.992843628">
  <ele>85.988892</ele>
  <time>2011-07-12T17:58:34Z</time>
  <speed>3.080000</speed>
</trkpt>
<trkpt lat="32.557777405" lon="34.993274689">
  <ele>92.975220</ele>
  <time>2011-07-12T17:58:54Z</time>
  <speed>2.830000</speed>
</trkpt>
<trkpt lat="32.558273315" lon="34.993709564">
  <ele>95.133423</ele>
  <time>2011-07-12T17:59:24Z</time>
  <speed>2.450000</speed>
</trkpt>
<trkpt lat="32.558616638" lon="34.993797302">
  <ele>96.908813</ele>
  <time>2011-07-12T17:59:45Z</time>
  <speed>1.840000</speed>
</trkpt>
<trkpt lat="32.558708191" lon="34.993900299">
  <ele>97.524048</ele>
  <time>2011-07-12T17:59:53Z</time>
  <speed>1.580000</speed>
</trkpt>
<trkpt lat="32.558956146" lon="34.993724823">
  <ele>96.445923</ele>
  <time>2011-07-12T18:00:11Z</time>
  <speed>1.740000</speed>
</trkpt>
<trkpt lat="32.559261322" lon="34.993797302">
  <ele>104.330688</ele>
  <time>2011-07-12T18:00:32Z</time>
  <speed>0.930000</speed>
</trkpt>
<trkpt lat="32.559547424" lon="34.993778229">
  <ele>106.582642</ele>
  <time>2011-07-12T18:00:50Z</time>
  <speed>1.570000</speed>
</trkpt>
<trkpt lat="32.559688568" lon="34.993659973">
  <ele>105.203735</ele>
  <time>2011-07-12T18:00:59Z</time>
  <speed>1.610000</speed>
</trkpt>
<trkpt lat="32.560112000" lon="34.993827820">
  <ele>108.233032</ele>
  <time>2011-07-12T18:01:29Z</time>
  <speed>1.120000</speed>
</trkpt>
<trkpt lat="32.560436249" lon="34.993827820">
  <ele>107.686157</ele>
  <time>2011-07-12T18:01:44Z</time>
  <speed>1.720000</speed>
</trkpt>
<trkpt lat="32.560585022" lon="34.993762970">
  <ele>108.807251</ele>
  <time>2011-07-12T18:01:49Z</time>
  <speed>1.860000</speed>
</trkpt>
<trkpt lat="32.560794830" lon="34.993846893">
  <ele>111.283813</ele>
  <time>2011-07-12T18:02:01Z</time>
  <speed>2.430000</speed>
</trkpt>
<trkpt lat="32.561676025" lon="34.993858337">
  <ele>118.111938</ele>
  <time>2011-07-12T18:02:48Z</time>
  <speed>2.080000</speed>
</trkpt>
<trkpt lat="32.561889648" lon="34.993774414">
  <ele>119.861938</ele>
  <time>2011-07-12T18:02:59Z</time>
  <speed>1.730000</speed>
</trkpt>
<trkpt lat="32.562057495" lon="34.993835449">
  <ele>122.951782</ele>
  <time>2011-07-12T18:03:11Z</time>
  <speed>1.730000</speed>
</trkpt>
<trkpt lat="32.562652588" lon="34.993846893">
  <ele>126.760376</ele>
  <time>2011-07-12T18:03:51Z</time>
  <speed>1.970000</speed>
</trkpt>
<trkpt lat="32.562862396" lon="34.993785858">
  <ele>128.044189</ele>
  <time>2011-07-12T18:04:07Z</time>
  <speed>1.500000</speed>
</trkpt>
<trkpt lat="32.563060760" lon="34.993824005">
  <ele>131.591064</ele>
  <time>2011-07-12T18:04:23Z</time>
  <speed>1.380000</speed>
</trkpt>
<trkpt lat="32.563724518" lon="34.994251251">
  <ele>137.591064</ele>
  <time>2011-07-12T18:05:19Z</time>
  <speed>1.070000</speed>
</trkpt>
<trkpt lat="32.563747406" lon="34.994525909">
  <ele>135.071533</ele>
  <time>2011-07-12T18:05:40Z</time>
  <speed>1.390000</speed>
</trkpt>
<trkpt lat="32.563640594" lon="34.995223999">
  <ele>139.509033</ele>
  <time>2011-07-12T18:06:24Z</time>
  <speed>1.400000</speed>
</trkpt>
<trkpt lat="32.563644409" lon="34.995269775">
  <ele>140.005127</ele>
  <time>2011-07-12T18:06:27Z</time>
  <speed>1.460000</speed>
</trkpt>
<trkpt lat="32.563705444" lon="34.995681763">
  <ele>142.594971</ele>
  <time>2011-07-12T18:06:55Z</time>
  <speed>1.600000</speed>
</trkpt>
<trkpt lat="32.563915253" lon="34.996234894">
  <ele>146.680908</ele>
  <time>2011-07-12T18:07:33Z</time>
  <speed>1.990000</speed>
</trkpt>
<trkpt lat="32.563899994" lon="34.996673584">
  <ele>144.446533</ele>
  <time>2011-07-12T18:07:55Z</time>
  <speed>1.980000</speed>
</trkpt>
<trkpt lat="32.563774109" lon="34.996955872">
  <ele>143.012939</ele>
  <time>2011-07-12T18:08:09Z</time>
  <speed>2.710000</speed>
</trkpt>
<trkpt lat="32.563465118" lon="34.997158051">
  <ele>143.372314</ele>
  <time>2011-07-12T18:08:24Z</time>
  <speed>2.780000</speed>
</trkpt>
<trkpt lat="32.563190460" lon="34.997623444">
  <ele>141.915283</ele>
  <time>2011-07-12T18:08:40Z</time>
  <speed>2.920000</speed>
</trkpt>
<trkpt lat="32.562820435" lon="34.997917175">
  <ele>142.055908</ele>
  <time>2011-07-12T18:08:57Z</time>
  <speed>2.460000</speed>
</trkpt>
<trkpt lat="32.562652588" lon="34.998149872">
  <ele>143.696533</ele>
  <time>2011-07-12T18:09:09Z</time>
  <speed>2.270000</speed>
</trkpt>
<trkpt lat="32.562507629" lon="34.998119354">
  <ele>144.302002</ele>
  <time>2011-07-12T18:09:18Z</time>
  <speed>1.940000</speed>
</trkpt>
<trkpt lat="32.562259674" lon="34.998237610">
  <ele>145.501221</ele>
  <time>2011-07-12T18:09:33Z</time>
  <speed>2.360000</speed>
</trkpt>
<trkpt lat="32.562095642" lon="34.998229980">
  <ele>147.313721</ele>
  <time>2011-07-12T18:09:41Z</time>
  <speed>1.460000</speed>
</trkpt>
<trkpt lat="32.562011719" lon="34.998271942">
  <ele>145.177002</ele>
  <time>2011-07-12T18:10:17Z</time>
</trkpt>
<trkpt lat="32.562023163" lon="34.998340607">
  <ele>143.204346</ele>
  <time>2011-07-12T18:12:12Z</time>
</trkpt>
<trkpt lat="32.562019348" lon="34.998256683">
  <ele>147.239502</ele>
  <time>2011-07-12T18:13:30Z</time>
</trkpt>
<trkpt lat="32.561923981" lon="34.998287201">
  <ele>147.540283</ele>
  <time>2011-07-12T18:13:59Z</time>
  <speed>1.760000</speed>
</trkpt>
<trkpt lat="32.561359406" lon="34.998611450">
  <ele>149.305908</ele>
  <time>2011-07-12T18:14:28Z</time>
  <speed>3.120000</speed>
</trkpt>
<trkpt lat="32.561080933" lon="34.998703003">
  <ele>147.036377</ele>
  <time>2011-07-12T18:14:39Z</time>
  <speed>2.900000</speed>
</trkpt>
<trkpt lat="32.560638428" lon="34.998641968">
  <ele>149.993408</ele>
  <time>2011-07-12T18:14:54Z</time>
  <speed>3.070000</speed>
</trkpt>
<trkpt lat="32.560497284" lon="34.998741150">
  <ele>148.677002</ele>
  <time>2011-07-12T18:15:00Z</time>
  <speed>3.230000</speed>
</trkpt>
<trkpt lat="32.560337067" lon="34.998687744">
  <ele>148.934814</ele>
  <time>2011-07-12T18:15:06Z</time>
  <speed>2.960000</speed>
</trkpt>
<trkpt lat="32.560142517" lon="34.998786926">
  <ele>147.993408</ele>
  <time>2011-07-12T18:15:12Z</time>
  <speed>4.680000</speed>
</trkpt>
<trkpt lat="32.559753418" lon="34.999214172">
  <ele>143.657471</ele>
  <time>2011-07-12T18:15:23Z</time>
  <speed>5.630000</speed>
</trkpt>
<trkpt lat="32.559303284" lon="34.999214172">
  <ele>141.614502</ele>
  <time>2011-07-12T18:15:33Z</time>
  <speed>2.920000</speed>
</trkpt>
<trkpt lat="32.559226990" lon="34.999156952">
  <ele>140.989502</ele>
  <time>2011-07-12T18:15:37Z</time>
  <speed>2.010000</speed>
</trkpt>
<trkpt lat="32.559150696" lon="34.998928070">
  <ele>142.223877</ele>
  <time>2011-07-12T18:15:47Z</time>
  <speed>3.010000</speed>
</trkpt>
<trkpt lat="32.559196472" lon="34.998725891">
  <ele>144.958252</ele>
  <time>2011-07-12T18:15:54Z</time>
  <speed>2.880000</speed>
</trkpt>
<trkpt lat="32.559158325" lon="34.998607635">
  <ele>145.262939</ele>
  <time>2011-07-12T18:15:58Z</time>
  <speed>2.690000</speed>
</trkpt>
<trkpt lat="32.558704376" lon="34.998210907">
  <ele>143.700439</ele>
  <time>2011-07-12T18:16:17Z</time>
  <speed>3.440000</speed>
</trkpt>
<trkpt lat="32.558395386" lon="34.998058319">
  <ele>144.110596</ele>
  <time>2011-07-12T18:16:26Z</time>
  <speed>4.450000</speed>
</trkpt>
<trkpt lat="32.558143616" lon="34.997451782">
  <ele>140.884033</ele>
  <time>2011-07-12T18:16:40Z</time>
  <speed>4.890000</speed>
</trkpt>
<trkpt lat="32.558044434" lon="34.997417450">
  <ele>139.559814</ele>
  <time>2011-07-12T18:16:43Z</time>
  <speed>2.700000</speed>
</trkpt>
<trkpt lat="32.557945251" lon="34.997585297">
  <ele>138.251221</ele>
  <time>2011-07-12T18:16:48Z</time>
  <speed>3.560000</speed>
</trkpt>
<trkpt lat="32.557861328" lon="34.997539520">
  <ele>137.184814</ele>
  <time>2011-07-12T18:16:51Z</time>
  <speed>3.240000</speed>
</trkpt>
<trkpt lat="32.557765961" lon="34.997314453">
  <ele>138.778564</ele>
  <time>2011-07-12T18:16:56Z</time>
  <speed>4.880000</speed>
</trkpt>
<trkpt lat="32.557735443" lon="34.996726990">
  <ele>139.563721</ele>
  <time>2011-07-12T18:17:09Z</time>
  <speed>3.990000</speed>
</trkpt>
<trkpt lat="32.557327271" lon="34.996604919">
  <ele>138.938721</ele>
  <time>2011-07-12T18:17:21Z</time>
  <speed>3.750000</speed>
</trkpt>
<trkpt lat="32.557250977" lon="34.996387482">
  <ele>137.969971</ele>
  <time>2011-07-12T18:17:27Z</time>
  <speed>3.350000</speed>
</trkpt>
<trkpt lat="32.557285309" lon="34.996006012">
  <ele>136.723877</ele>
  <time>2011-07-12T18:17:38Z</time>
  <speed>2.900000</speed>
</trkpt>
<trkpt lat="32.556514740" lon="34.994792938">
  <ele>126.744751</ele>
  <time>2011-07-12T18:18:19Z</time>
  <speed>3.410000</speed>
</trkpt>
<trkpt lat="32.556419373" lon="34.994571686">
  <ele>124.391235</ele>
  <time>2011-07-12T18:18:26Z</time>
  <speed>2.100000</speed>
</trkpt>
<trkpt lat="32.556434631" lon="34.994327545">
  <ele>121.899048</ele>
  <time>2011-07-12T18:18:33Z</time>
  <speed>4.050000</speed>
</trkpt>
<trkpt lat="32.556167603" lon="34.993919373">
  <ele>119.721313</ele>
  <time>2011-07-12T18:18:44Z</time>
  <speed>3.340000</speed>
</trkpt>
<trkpt lat="32.556037903" lon="34.993892670">
  <ele>120.020142</ele>
  <time>2011-07-12T18:18:48Z</time>
  <speed>3.640000</speed>
</trkpt>
<trkpt lat="32.555896759" lon="34.993991852">
  <ele>119.975220</ele>
  <time>2011-07-12T18:18:52Z</time>
  <speed>3.890000</speed>
</trkpt>
<trkpt lat="32.555789948" lon="34.993988037">
  <ele>118.342407</ele>
  <time>2011-07-12T18:18:55Z</time>
  <speed>3.550000</speed>
</trkpt>
<trkpt lat="32.555625916" lon="34.993705750">
  <ele>113.873657</ele>
  <time>2011-07-12T18:19:02Z</time>
  <speed>3.500000</speed>
</trkpt>
<trkpt lat="32.555473328" lon="34.993751526">
  <ele>110.936157</ele>
  <time>2011-07-12T18:19:08Z</time>
  <speed>0.650000</speed>
</trkpt>
<trkpt lat="32.555301666" lon="34.993690491">
  <ele>109.350220</ele>
  <time>2011-07-12T18:19:34Z</time>
  <speed>4.310000</speed>
</trkpt>
<trkpt lat="32.555118561" lon="34.993339539">
  <ele>108.236938</ele>
  <time>2011-07-12T18:19:41Z</time>
  <speed>3.270000</speed>
</trkpt>
<trkpt lat="32.554920197" lon="34.993461609">
  <ele>103.531860</ele>
  <time>2011-07-12T18:19:48Z</time>
  <speed>4.640000</speed>
</trkpt>
<trkpt lat="32.554752350" lon="34.993480682">
  <ele>104.186157</ele>
  <time>2011-07-12T18:19:52Z</time>
  <speed>5.100000</speed>
</trkpt>
<trkpt lat="32.554557800" lon="34.993663788">
  <ele>100.756470</ele>
  <time>2011-07-12T18:19:57Z</time>
  <speed>4.340000</speed>
</trkpt>
<trkpt lat="32.554386139" lon="34.993556976">
  <ele>100.520142</ele>
  <time>2011-07-12T18:20:01Z</time>
  <speed>4.570000</speed>
</trkpt>
<trkpt lat="32.554378510" lon="34.993373871">
  <ele>98.547485</ele>
  <time>2011-07-12T18:20:05Z</time>
  <speed>4.460000</speed>
</trkpt>
<trkpt lat="32.554126740" lon="34.992752075">
  <ele>97.768188</ele>
  <time>2011-07-12T18:20:17Z</time>
  <speed>4.330000</speed>
</trkpt>
<trkpt lat="32.554367065" lon="34.992397308">
  <ele>96.453735</ele>
  <time>2011-07-12T18:20:37Z</time>
  <speed>2.320000</speed>
</trkpt>
<trkpt lat="32.554447174" lon="34.992153168">
  <ele>92.998657</ele>
  <time>2011-07-12T18:20:43Z</time>
  <speed>4.350000</speed>
</trkpt>
<trkpt lat="32.554767609" lon="34.991977692">
  <ele>89.613892</ele>
  <time>2011-07-12T18:20:54Z</time>
  <speed>2.070000</speed>
</trkpt>
<trkpt lat="32.554603577" lon="34.991641998">
  <ele>91.160767</ele>
  <time>2011-07-12T18:22:22Z</time>
</trkpt>
<trkpt lat="32.554706573" lon="34.991832733">
  <ele>90.588501</ele>
  <time>2011-07-12T18:25:31Z</time>
  <speed>0.950000</speed>
</trkpt>
<trkpt lat="32.554409027" lon="34.992069244">
  <ele>86.779907</ele>
  <time>2011-07-12T18:25:50Z</time>
  <speed>2.160000</speed>
</trkpt>
<trkpt lat="32.554351807" lon="34.992355347">
  <ele>89.483032</ele>
  <time>2011-07-12T18:26:03Z</time>
  <speed>0.890000</speed>
</trkpt>
<trkpt lat="32.554126740" lon="34.992790222">
  <ele>88.633423</ele>
  <time>2011-07-12T18:26:28Z</time>
  <speed>1.670000</speed>
</trkpt>
<trkpt lat="32.554134369" lon="34.992935181">
  <ele>93.916626</ele>
  <time>2011-07-12T18:26:36Z</time>
  <speed>1.550000</speed>
</trkpt>
<trkpt lat="32.554397583" lon="34.993392944">
  <ele>102.699829</ele>
  <time>2011-07-12T18:27:04Z</time>
  <speed>1.540000</speed>
</trkpt>
<trkpt lat="32.554378510" lon="34.993511200">
  <ele>104.358032</ele>
  <time>2011-07-12T18:27:10Z</time>
  <speed>2.250000</speed>
</trkpt>
<trkpt lat="32.554378510" lon="34.993560791">
  <ele>103.807251</ele>
  <time>2011-07-12T18:27:12Z</time>
  <speed>2.130000</speed>
</trkpt>
<trkpt lat="32.554615021" lon="34.993671417">
  <ele>107.707642</ele>
  <time>2011-07-12T18:27:28Z</time>
  <speed>1.250000</speed>
</trkpt>
<trkpt lat="32.554809570" lon="34.993473053">
  <ele>111.914673</ele>
  <time>2011-07-12T18:27:42Z</time>
  <speed>2.000000</speed>
</trkpt>
<trkpt lat="32.554939270" lon="34.993476868">
  <ele>112.447876</ele>
  <time>2011-07-12T18:27:50Z</time>
  <speed>1.890000</speed>
</trkpt>
<trkpt lat="32.555164337" lon="34.993350983">
  <ele>109.223267</ele>
  <time>2011-07-12T18:28:04Z</time>
  <speed>2.210000</speed>
</trkpt>
<trkpt lat="32.555335999" lon="34.993698120">
  <ele>111.924438</ele>
  <time>2011-07-12T18:28:25Z</time>
  <speed>1.840000</speed>
</trkpt>
<trkpt lat="32.555656433" lon="34.993690491">
  <ele>116.334595</ele>
  <time>2011-07-12T18:28:47Z</time>
  <speed>1.870000</speed>
</trkpt>
<trkpt lat="32.555831909" lon="34.994007111">
  <ele>120.975220</ele>
  <time>2011-07-12T18:29:09Z</time>
  <speed>1.220000</speed>
</trkpt>
<trkpt lat="32.555923462" lon="34.994026184">
  <ele>122.385376</ele>
  <time>2011-07-12T18:29:16Z</time>
  <speed>1.700000</speed>
</trkpt>
<trkpt lat="32.556140900" lon="34.993900299">
  <ele>123.049438</ele>
  <time>2011-07-12T18:29:28Z</time>
  <speed>2.230000</speed>
</trkpt>
<trkpt lat="32.556217194" lon="34.993934631">
  <ele>122.598267</ele>
  <time>2011-07-12T18:29:32Z</time>
  <speed>1.750000</speed>
</trkpt>
<trkpt lat="32.556430817" lon="34.994312286">
  <ele>124.924438</ele>
  <time>2011-07-12T18:29:58Z</time>
  <speed>1.800000</speed>
</trkpt>
<trkpt lat="32.556404114" lon="34.994602203">
  <ele>125.744751</ele>
  <time>2011-07-12T18:30:14Z</time>
  <speed>1.460000</speed>
</trkpt>
<trkpt lat="32.556465149" lon="34.994747162">
  <ele>127.391235</ele>
  <time>2011-07-12T18:30:24Z</time>
  <speed>0.790000</speed>
</trkpt>
<trkpt lat="32.557239532" lon="34.995906830">
  <ele>139.290283</ele>
  <time>2011-07-12T18:31:52Z</time>
  <speed>1.330000</speed>
</trkpt>
<trkpt lat="32.557258606" lon="34.996456146">
  <ele>141.005127</ele>
  <time>2011-07-12T18:32:24Z</time>
  <speed>1.560000</speed>
</trkpt>
<trkpt lat="32.557346344" lon="34.996639252">
  <ele>141.196533</ele>
  <time>2011-07-12T18:32:34Z</time>
  <speed>2.150000</speed>
</trkpt>
<trkpt lat="32.557750702" lon="34.996738434">
  <ele>141.962158</ele>
  <time>2011-07-12T18:32:54Z</time>
  <speed>2.620000</speed>
</trkpt>
<trkpt lat="32.557781219" lon="34.997390747">
  <ele>144.665283</ele>
  <time>2011-07-12T18:33:24Z</time>
  <speed>2.220000</speed>
</trkpt>
<trkpt lat="32.557956696" lon="34.997619629">
  <ele>143.579346</ele>
  <time>2011-07-12T18:33:38Z</time>
  <speed>1.620000</speed>
</trkpt>
<trkpt lat="32.558082581" lon="34.997428894">
  <ele>143.208252</ele>
  <time>2011-07-12T18:33:48Z</time>
  <speed>3.120000</speed>
</trkpt>
<trkpt lat="32.558139801" lon="34.997436523">
  <ele>142.259033</ele>
  <time>2011-07-12T18:33:50Z</time>
  <speed>2.730000</speed>
</trkpt>
<trkpt lat="32.558483124" lon="34.998153687">
  <ele>147.419189</ele>
  <time>2011-07-12T18:34:24Z</time>
  <speed>2.430000</speed>
</trkpt>
<trkpt lat="32.558757782" lon="34.998275757">
  <ele>145.544189</ele>
  <time>2011-07-12T18:34:37Z</time>
  <speed>2.490000</speed>
</trkpt>
<trkpt lat="32.559215546" lon="34.998664856">
  <ele>143.505127</ele>
  <time>2011-07-12T18:34:57Z</time>
  <speed>3.020000</speed>
</trkpt>
<trkpt lat="32.559173584" lon="34.998970032">
  <ele>144.438721</ele>
  <time>2011-07-12T18:35:05Z</time>
  <speed>5.120000</speed>
</trkpt>
<trkpt lat="32.559337616" lon="34.999244690">
  <ele>143.907471</ele>
  <time>2011-07-12T18:35:11Z</time>
  <speed>3.090000</speed>
</trkpt>
<trkpt lat="32.559803009" lon="34.999217987">
  <ele>147.969971</ele>
  <time>2011-07-12T18:38:08Z</time>
  <speed>1.860000</speed>
</trkpt>
<trkpt lat="32.560173035" lon="34.998802185">
  <ele>153.735596</ele>
  <time>2011-07-12T18:38:27Z</time>
  <speed>3.440000</speed>
</trkpt>
<trkpt lat="32.560356140" lon="34.998699188">
  <ele>155.751221</ele>
  <time>2011-07-12T18:38:35Z</time>
  <speed>2.150000</speed>
</trkpt>
<trkpt lat="32.560543060" lon="34.998752594">
  <ele>153.094971</ele>
  <time>2011-07-12T18:38:45Z</time>
  <speed>1.930000</speed>
</trkpt>
<trkpt lat="32.560710907" lon="34.998630524">
  <ele>156.239502</ele>
  <time>2011-07-12T18:38:58Z</time>
  <speed>1.690000</speed>
</trkpt>
<trkpt lat="32.560958862" lon="34.998729706">
  <ele>152.344971</ele>
  <time>2011-07-12T18:39:12Z</time>
  <speed>2.570000</speed>
</trkpt>
<trkpt lat="32.561119080" lon="34.998714447">
  <ele>151.622314</ele>
  <time>2011-07-12T18:39:18Z</time>
  <speed>3.330000</speed>
</trkpt>
<trkpt lat="32.561950684" lon="34.998283386">
  <ele>155.497314</ele>
  <time>2011-07-12T18:39:47Z</time>
  <speed>4.410000</speed>
</trkpt>
<trkpt lat="32.562629700" lon="34.998092651">
  <ele>148.430908</ele>
  <time>2011-07-12T18:40:27Z</time>
  <speed>3.600000</speed>
</trkpt>
<trkpt lat="32.563041687" lon="34.998096466">
  <ele>150.548096</ele>
  <time>2011-07-12T18:40:44Z</time>
  <speed>4.270000</speed>
</trkpt>
<trkpt lat="32.563781738" lon="34.997600555">
  <ele>148.153564</ele>
  <time>2011-07-12T18:41:02Z</time>
  <speed>4.150000</speed>
</trkpt>
<trkpt lat="32.563961029" lon="34.997550964">
  <ele>149.438721</ele>
  <time>2011-07-12T18:41:07Z</time>
  <speed>3.840000</speed>
</trkpt>
<trkpt lat="32.564243317" lon="34.997539520">
  <ele>150.532471</ele>
  <time>2011-07-12T18:41:15Z</time>
  <speed>3.950000</speed>
</trkpt>
<trkpt lat="32.564456940" lon="34.997634888">
  <ele>150.028564</ele>
  <time>2011-07-12T18:41:21Z</time>
  <speed>3.910000</speed>
</trkpt>
<trkpt lat="32.564861298" lon="34.997547150">
  <ele>151.442627</ele>
  <time>2011-07-12T18:41:33Z</time>
  <speed>3.050000</speed>
</trkpt>
<trkpt lat="32.565105438" lon="34.997585297">
  <ele>150.020752</ele>
  <time>2011-07-12T18:41:40Z</time>
  <speed>3.480000</speed>
</trkpt>
<trkpt lat="32.565223694" lon="34.997707367">
  <ele>150.313721</ele>
  <time>2011-07-12T18:41:47Z</time>
  <speed>2.570000</speed>
</trkpt>
<trkpt lat="32.565494537" lon="34.997661591">
  <ele>149.036377</ele>
  <time>2011-07-12T18:41:55Z</time>
  <speed>3.850000</speed>
</trkpt>
<trkpt lat="32.565887451" lon="34.997791290">
  <ele>149.040283</ele>
  <time>2011-07-12T18:42:08Z</time>
  <speed>3.670000</speed>
</trkpt>
<trkpt lat="32.566524506" lon="34.997749329">
  <ele>149.368408</ele>
  <time>2011-07-12T18:42:27Z</time>
  <speed>3.280000</speed>
</trkpt>
<trkpt lat="32.566833496" lon="34.997562408">
  <ele>150.716064</ele>
  <time>2011-07-12T18:42:39Z</time>
  <speed>3.660000</speed>
</trkpt>
<trkpt lat="32.567054749" lon="34.997676849">
  <ele>147.360596</ele>
  <time>2011-07-12T18:42:47Z</time>
  <speed>3.490000</speed>
</trkpt>
<trkpt lat="32.567157745" lon="34.997852325">
  <ele>148.415283</ele>
  <time>2011-07-12T18:42:54Z</time>
  <speed>2.320000</speed>
</trkpt>
<trkpt lat="32.567543030" lon="34.997959137">
  <ele>142.196533</ele>
  <time>2011-07-12T18:43:05Z</time>
  <speed>6.230000</speed>
</trkpt>
<trkpt lat="32.567771912" lon="34.997913361">
  <ele>141.380127</ele>
  <time>2011-07-12T18:43:09Z</time>
  <speed>4.350000</speed>
</trkpt>
<trkpt lat="32.567863464" lon="34.997970581">
  <ele>137.684814</ele>
  <time>2011-07-12T18:43:12Z</time>
  <speed>2.760000</speed>
</trkpt>
<trkpt lat="32.568111420" lon="34.997951508">
  <ele>138.052002</ele>
  <time>2011-07-12T18:43:18Z</time>
  <speed>4.150000</speed>
</trkpt>
<trkpt lat="32.568237305" lon="34.998134613">
  <ele>133.485596</ele>
  <time>2011-07-12T18:43:22Z</time>
  <speed>4.860000</speed>
</trkpt>
<trkpt lat="32.568313599" lon="34.998634338">
  <ele>128.028564</ele>
  <time>2011-07-12T18:43:30Z</time>
  <speed>6.150000</speed>
</trkpt>
<trkpt lat="32.568244934" lon="34.999645233">
  <ele>118.945923</ele>
  <time>2011-07-12T18:43:43Z</time>
  <speed>7.910000</speed>
</trkpt>
<trkpt lat="32.568244934" lon="34.999813080">
  <ele>117.695923</ele>
  <time>2011-07-12T18:43:45Z</time>
  <speed>7.850000</speed>
</trkpt>
<trkpt lat="32.568138123" lon="35.001140594">
  <ele>108.033813</ele>
  <time>2011-07-12T18:44:00Z</time>
  <speed>6.910000</speed>
</trkpt>
<trkpt lat="32.567977905" lon="35.001777649">
  <ele>103.984985</ele>
  <time>2011-07-12T18:44:08Z</time>
  <speed>5.810000</speed>
</trkpt>
<trkpt lat="32.568180084" lon="35.002235413">
  <ele>96.705688</ele>
  <time>2011-07-12T18:44:20Z</time>
  <speed>2.980000</speed>
</trkpt>
<trkpt lat="32.568645477" lon="35.002220154">
  <ele>103.631470</ele>
  <time>2011-07-12T18:46:38Z</time>
  <speed>2.760000</speed>
</trkpt>
<trkpt lat="32.569316864" lon="35.002395630">
  <ele>99.776001</ele>
  <time>2011-07-12T18:47:01Z</time>
  <speed>2.950000</speed>
</trkpt>
<trkpt lat="32.570873260" lon="35.002475739">
  <ele>111.863892</ele>
  <time>2011-07-12T18:48:04Z</time>
  <speed>2.710000</speed>
</trkpt>
<trkpt lat="32.571647644" lon="35.002674103">
  <ele>109.088501</ele>
  <time>2011-07-12T18:48:32Z</time>
  <speed>2.540000</speed>
</trkpt>
<trkpt lat="32.572154999" lon="35.002529144">
  <ele>114.592407</ele>
  <time>2011-07-12T18:48:53Z</time>
  <speed>2.810000</speed>
</trkpt>
<trkpt lat="32.572505951" lon="35.002326965">
  <ele>116.467407</ele>
  <time>2011-07-12T18:49:07Z</time>
  <speed>3.140000</speed>
</trkpt>
<trkpt lat="32.573150635" lon="35.002094269">
  <ele>117.568970</ele>
  <time>2011-07-12T18:49:31Z</time>
  <speed>3.540000</speed>
</trkpt>
<trkpt lat="32.573772430" lon="35.002002716">
  <ele>119.404907</ele>
  <time>2011-07-12T18:49:53Z</time>
  <speed>3.470000</speed>
</trkpt>
<trkpt lat="32.575096130" lon="35.001350403">
  <ele>125.193970</ele>
  <time>2011-07-12T18:50:44Z</time>
  <speed>3.070000</speed>
</trkpt>
<trkpt lat="32.575576782" lon="35.001277924">
  <ele>127.910767</ele>
  <time>2011-07-12T18:51:02Z</time>
  <speed>3.060000</speed>
</trkpt>
<trkpt lat="32.575801849" lon="35.001312256">
  <ele>126.127563</ele>
  <time>2011-07-12T18:51:10Z</time>
  <speed>3.000000</speed>
</trkpt>
<trkpt lat="32.576438904" lon="35.001705170">
  <ele>124.672485</ele>
  <time>2011-07-12T18:51:38Z</time>
  <speed>2.410000</speed>
</trkpt>
<trkpt lat="32.576946259" lon="35.002342224">
  <ele>134.446533</ele>
  <time>2011-07-12T18:52:15Z</time>
  <speed>1.750000</speed>
</trkpt>
<trkpt lat="32.577140808" lon="35.002445221">
  <ele>136.677002</ele>
  <time>2011-07-12T18:52:29Z</time>
  <speed>2.130000</speed>
</trkpt>
<trkpt lat="32.577846527" lon="35.002506256">
  <ele>146.571533</ele>
  <time>2011-07-12T18:53:19Z</time>
  <speed>1.570000</speed>
</trkpt>
<trkpt lat="32.578578949" lon="35.002433777">
  <ele>148.872314</ele>
  <time>2011-07-12T18:54:03Z</time>
  <speed>2.030000</speed>
</trkpt>
<trkpt lat="32.578838348" lon="35.002490997">
  <ele>145.087158</ele>
  <time>2011-07-12T18:54:14Z</time>
  <speed>3.290000</speed>
</trkpt>
<trkpt lat="32.579296112" lon="35.002212524">
  <ele>139.735596</ele>
  <time>2011-07-12T18:54:29Z</time>
  <speed>2.550000</speed>
</trkpt>
<trkpt lat="32.579433441" lon="35.002037048">
  <ele>137.614502</ele>
  <time>2011-07-12T18:54:35Z</time>
  <speed>4.590000</speed>
</trkpt>
<trkpt lat="32.579696655" lon="35.002063751">
  <ele>131.907471</ele>
  <time>2011-07-12T18:54:45Z</time>
  <speed>1.910000</speed>
</trkpt>
<trkpt lat="32.580055237" lon="35.002746582">
  <ele>123.680298</ele>
  <time>2011-07-12T18:55:11Z</time>
  <speed>3.820000</speed>
</trkpt>
<trkpt lat="32.580356598" lon="35.002964020">
  <ele>121.447876</ele>
  <time>2011-07-12T18:55:18Z</time>
  <speed>5.960000</speed>
</trkpt>
<trkpt lat="32.580543518" lon="35.003227234">
  <ele>117.352173</ele>
  <time>2011-07-12T18:55:23Z</time>
  <speed>5.750000</speed>
</trkpt>
<trkpt lat="32.580791473" lon="35.003807068">
  <ele>115.520142</ele>
  <time>2011-07-12T18:55:35Z</time>
  <speed>5.310000</speed>
</trkpt>
<trkpt lat="32.581100464" lon="35.003883362">
  <ele>113.627563</ele>
  <time>2011-07-12T18:55:41Z</time>
  <speed>3.660000</speed>
</trkpt>
<trkpt lat="32.581214905" lon="35.004173279">
  <ele>114.467407</ele>
  <time>2011-07-12T18:55:52Z</time>
  <speed>1.790000</speed>
</trkpt>
<trkpt lat="32.581008911" lon="35.004405975">
  <ele>118.092407</ele>
  <time>2011-07-12T18:56:10Z</time>
  <speed>1.710000</speed>
</trkpt>
<trkpt lat="32.580905914" lon="35.004699707">
  <ele>117.936157</ele>
  <time>2011-07-12T18:56:25Z</time>
  <speed>1.880000</speed>
</trkpt>
<trkpt lat="32.580772400" lon="35.006328583">
  <ele>126.414673</ele>
  <time>2011-07-12T18:57:43Z</time>
  <speed>1.950000</speed>
</trkpt>
<trkpt lat="32.580810547" lon="35.006576538">
  <ele>129.087158</ele>
  <time>2011-07-12T18:57:55Z</time>
  <speed>1.630000</speed>
</trkpt>
<trkpt lat="32.580734253" lon="35.006774902">
  <ele>129.141846</ele>
  <time>2011-07-12T18:58:05Z</time>
  <speed>1.830000</speed>
</trkpt>
<trkpt lat="32.580829620" lon="35.007331848">
  <ele>130.032471</ele>
  <time>2011-07-12T18:58:33Z</time>
  <speed>1.800000</speed>
</trkpt>
<trkpt lat="32.580833435" lon="35.007377625">
  <ele>130.469971</ele>
  <time>2011-07-12T18:58:35Z</time>
  <speed>1.840000</speed>
</trkpt>
<trkpt lat="32.580764771" lon="35.007907867">
  <ele>134.747314</ele>
  <time>2011-07-12T18:59:05Z</time>
  <speed>1.380000</speed>
</trkpt>
<trkpt lat="32.580875397" lon="35.007907867">
  <ele>136.794189</ele>
  <time>2011-07-12T18:59:11Z</time>
  <speed>1.790000</speed>
</trkpt>
<trkpt lat="32.581192017" lon="35.007694244">
  <ele>141.981689</ele>
  <time>2011-07-12T18:59:34Z</time>
  <speed>2.070000</speed>
</trkpt>
<trkpt lat="32.581745148" lon="35.007736206">
  <ele>149.669189</ele>
  <time>2011-07-12T19:00:02Z</time>
  <speed>2.140000</speed>
</trkpt>
<trkpt lat="32.582347870" lon="35.008106232">
  <ele>143.294189</ele>
  <time>2011-07-12T19:00:40Z</time>
  <speed>1.980000</speed>
</trkpt>
<trkpt lat="32.582489014" lon="35.008464813">
  <ele>145.977783</ele>
  <time>2011-07-12T19:01:02Z</time>
  <speed>1.790000</speed>
</trkpt>
<trkpt lat="32.582839966" lon="35.008899689">
  <ele>151.430908</ele>
  <time>2011-07-12T19:01:35Z</time>
  <speed>1.840000</speed>
</trkpt>
<trkpt lat="32.582855225" lon="35.009342194">
  <ele>154.833252</ele>
  <time>2011-07-12T19:02:03Z</time>
  <speed>1.280000</speed>
</trkpt>
<trkpt lat="32.583129883" lon="35.009620667">
  <ele>158.981689</ele>
  <time>2011-07-12T19:02:26Z</time>
  <speed>1.860000</speed>
</trkpt>
<trkpt lat="32.583518982" lon="35.010372162">
  <ele>159.610596</ele>
  <time>2011-07-12T19:03:12Z</time>
  <speed>1.890000</speed>
</trkpt>
<trkpt lat="32.583744049" lon="35.010635376">
  <ele>161.751221</ele>
  <time>2011-07-12T19:03:30Z</time>
  <speed>1.660000</speed>
</trkpt>
<trkpt lat="32.583827972" lon="35.010868073">
  <ele>161.954346</ele>
  <time>2011-07-12T19:03:42Z</time>
  <speed>1.580000</speed>
</trkpt>
<trkpt lat="32.583854675" lon="35.011142731">
  <ele>165.341064</ele>
  <time>2011-07-12T19:03:57Z</time>
  <speed>1.810000</speed>
</trkpt>
<trkpt lat="32.583698273" lon="35.011512756">
  <ele>172.028564</ele>
  <time>2011-07-12T19:04:21Z</time>
  <speed>1.730000</speed>
</trkpt>
<trkpt lat="32.583705902" lon="35.011898041">
  <ele>174.606689</ele>
  <time>2011-07-12T19:04:43Z</time>
  <speed>1.600000</speed>
</trkpt>
<trkpt lat="32.583557129" lon="35.012050629">
  <ele>174.802002</ele>
  <time>2011-07-12T19:04:57Z</time>
  <speed>1.430000</speed>
</trkpt>
<trkpt lat="32.583511353" lon="35.012321472">
  <ele>178.344971</ele>
  <time>2011-07-12T19:05:12Z</time>
  <speed>1.540000</speed>
</trkpt>
<trkpt lat="32.583847046" lon="35.013301849">
  <ele>174.032471</ele>
  <time>2011-07-12T19:05:54Z</time>
  <speed>2.080000</speed>
</trkpt>
<trkpt lat="32.584571838" lon="35.013156891">
  <ele>178.653564</ele>
  <time>2011-07-12T19:06:41Z</time>
  <speed>0.090000</speed>
</trkpt>
<trkpt lat="32.584712982" lon="35.012966156">
  <ele>183.528564</ele>
  <time>2011-07-12T19:11:53Z</time>
  <speed>4.520000</speed>
</trkpt>
<trkpt lat="32.584815979" lon="35.012931824">
  <ele>181.501221</ele>
  <time>2011-07-12T19:11:56Z</time>
  <speed>4.120000</speed>
</trkpt>
<trkpt lat="32.585018158" lon="35.012989044">
  <ele>180.387939</ele>
  <time>2011-07-12T19:12:01Z</time>
  <speed>3.980000</speed>
</trkpt>
<trkpt lat="32.585083008" lon="35.013080597">
  <ele>178.856689</ele>
  <time>2011-07-12T19:12:04Z</time>
  <speed>2.450000</speed>
</trkpt>
<trkpt lat="32.585338593" lon="35.013126373">
  <ele>176.352783</ele>
  <time>2011-07-12T19:12:09Z</time>
  <speed>5.770000</speed>
</trkpt>
<trkpt lat="32.585506439" lon="35.013076782">
  <ele>172.684814</ele>
  <time>2011-07-12T19:12:12Z</time>
  <speed>4.470000</speed>
</trkpt>
<trkpt lat="32.586071014" lon="35.013210297">
  <ele>169.063721</ele>
  <time>2011-07-12T19:12:22Z</time>
  <speed>5.310000</speed>
</trkpt>
<trkpt lat="32.586292267" lon="35.013141632">
  <ele>169.427002</ele>
  <time>2011-07-12T19:12:26Z</time>
  <speed>5.950000</speed>
</trkpt>
<trkpt lat="32.586677551" lon="35.013145447">
  <ele>167.368408</ele>
  <time>2011-07-12T19:12:33Z</time>
  <speed>4.470000</speed>
</trkpt>
<trkpt lat="32.586883545" lon="35.013217926">
  <ele>163.884033</ele>
  <time>2011-07-12T19:12:38Z</time>
  <speed>2.730000</speed>
</trkpt>
<trkpt lat="32.587425232" lon="35.013202667">
  <ele>154.083252</ele>
  <time>2011-07-12T19:12:53Z</time>
  <speed>2.750000</speed>
</trkpt>
<trkpt lat="32.587661743" lon="35.013339996">
  <ele>145.469971</ele>
  <time>2011-07-12T19:12:59Z</time>
  <speed>2.370000</speed>
</trkpt>
<trkpt lat="32.587814331" lon="35.013313293">
  <ele>142.130127</ele>
  <time>2011-07-12T19:13:03Z</time>
  <speed>3.550000</speed>
</trkpt>
<trkpt lat="32.588214874" lon="35.012756348">
  <ele>132.989502</ele>
  <time>2011-07-12T19:13:17Z</time>
  <speed>3.940000</speed>
</trkpt>
<trkpt lat="32.588268280" lon="35.012260437">
  <ele>128.825439</ele>
  <time>2011-07-12T19:13:26Z</time>
  <speed>2.090000</speed>
</trkpt>
<trkpt lat="32.588310242" lon="35.012199402">
  <ele>128.087158</ele>
  <time>2011-07-12T19:13:31Z</time>
  <speed>1.180000</speed>
</trkpt>
<trkpt lat="32.588363647" lon="35.012298584">
  <ele>125.006470</ele>
  <time>2011-07-12T19:13:35Z</time>
  <speed>3.290000</speed>
</trkpt>
<trkpt lat="32.588466644" lon="35.012237549">
  <ele>120.608032</ele>
  <time>2011-07-12T19:13:39Z</time>
  <speed>3.930000</speed>
</trkpt>
<trkpt lat="32.588512421" lon="35.011970520">
  <ele>117.883423</ele>
  <time>2011-07-12T19:13:44Z</time>
  <speed>4.070000</speed>
</trkpt>
<trkpt lat="32.588901520" lon="35.011234283">
  <ele>109.498657</ele>
  <time>2011-07-12T19:14:00Z</time>
  <speed>4.670000</speed>
</trkpt>
<trkpt lat="32.588836670" lon="35.010795593">
  <ele>108.391235</ele>
  <time>2011-07-12T19:14:09Z</time>
  <speed>3.870000</speed>
</trkpt>
<trkpt lat="32.588970184" lon="35.010520935">
  <ele>104.432251</ele>
  <time>2011-07-12T19:14:16Z</time>
  <speed>3.880000</speed>
</trkpt>
<trkpt lat="32.589199066" lon="35.010368347">
  <ele>99.190063</ele>
  <time>2011-07-12T19:14:24Z</time>
  <speed>3.580000</speed>
</trkpt>
<trkpt lat="32.589427948" lon="35.010337830">
  <ele>96.102173</ele>
  <time>2011-07-12T19:14:31Z</time>
  <speed>3.970000</speed>
</trkpt>
<trkpt lat="32.589904785" lon="35.010417938">
  <ele>97.815063</ele>
  <time>2011-07-12T19:14:43Z</time>
  <speed>3.150000</speed>
</trkpt>
<trkpt lat="32.590084076" lon="35.010631561">
  <ele>100.295532</ele>
  <time>2011-07-12T19:14:51Z</time>
  <speed>3.550000</speed>
</trkpt>
<trkpt lat="32.589889526" lon="35.010917664">
  <ele>95.817017</ele>
  <time>2011-07-12T19:14:57Z</time>
  <speed>5.370000</speed>
</trkpt>
<trkpt lat="32.589866638" lon="35.011009216">
  <ele>95.738892</ele>
  <time>2011-07-12T19:14:59Z</time>
  <speed>1.800000</speed>
</trkpt>
<trkpt lat="32.589931488" lon="35.011054993">
  <ele>95.955688</ele>
  <time>2011-07-12T19:15:03Z</time>
  <speed>0.150000</speed>
</trkpt>
<trkpt lat="32.590404510" lon="35.010963440">
  <ele>96.818970</ele>
  <time>2011-07-12T19:16:23Z</time>
  <speed>7.770000</speed>
</trkpt>
<trkpt lat="32.591175079" lon="35.010971069">
  <ele>92.770142</ele>
  <time>2011-07-12T19:16:30Z</time>
  <speed>9.950000</speed>
</trkpt>
<trkpt lat="32.591663361" lon="35.010902405">
  <ele>82.457642</ele>
  <time>2011-07-12T19:16:35Z</time>
  <speed>10.220000</speed>
</trkpt>
<trkpt lat="32.592319489" lon="35.010585785">
  <ele>73.053345</ele>
  <time>2011-07-12T19:16:43Z</time>
  <speed>8.310000</speed>
</trkpt>
<trkpt lat="32.592575073" lon="35.010185242">
  <ele>67.682251</ele>
  <time>2011-07-12T19:16:49Z</time>
  <speed>7.500000</speed>
</trkpt>
<trkpt lat="32.592739105" lon="35.009395599">
  <ele>59.832336</ele>
  <time>2011-07-12T19:16:58Z</time>
  <speed>7.550000</speed>
</trkpt>
<trkpt lat="32.592761993" lon="35.008953094">
  <ele>59.608704</ele>
  <time>2011-07-12T19:17:03Z</time>
  <speed>7.280000</speed>
</trkpt>
<trkpt lat="32.592636108" lon="35.008312225">
  <ele>57.157532</ele>
  <time>2011-07-12T19:17:12Z</time>
  <speed>6.150000</speed>
</trkpt>
<trkpt lat="32.592475891" lon="35.008045197">
  <ele>52.771790</ele>
  <time>2011-07-12T19:17:17Z</time>
  <speed>4.540000</speed>
</trkpt>
<trkpt lat="32.591934204" lon="35.007503510">
  <ele>57.211243</ele>
  <time>2011-07-12T19:17:41Z</time>
  <speed>2.540000</speed>
</trkpt>
<trkpt lat="32.591442108" lon="35.007240295">
  <ele>62.912415</ele>
  <time>2011-07-12T19:18:01Z</time>
  <speed>2.670000</speed>
</trkpt>
<trkpt lat="32.591281891" lon="35.007236481">
  <ele>64.055298</ele>
  <time>2011-07-12T19:18:07Z</time>
  <speed>2.810000</speed>
</trkpt>
<trkpt lat="32.591030121" lon="35.007217407">
  <ele>64.043579</ele>
  <time>2011-07-12T19:18:16Z</time>
  <speed>3.060000</speed>
</trkpt>
<trkpt lat="32.590873718" lon="35.007053375">
  <ele>61.458313</ele>
  <time>2011-07-12T19:18:26Z</time>
  <speed>1.610000</speed>
</trkpt>
<trkpt lat="32.590938568" lon="35.006874084">
  <ele>60.538391</ele>
  <time>2011-07-12T19:18:34Z</time>
  <speed>2.750000</speed>
</trkpt>
<trkpt lat="32.591766357" lon="35.006225586">
  <ele>59.114563</ele>
  <time>2011-07-12T19:18:55Z</time>
  <speed>5.860000</speed>
</trkpt>
<trkpt lat="32.591827393" lon="35.006118774">
  <ele>59.112610</ele>
  <time>2011-07-12T19:18:57Z</time>
  <speed>4.840000</speed>
</trkpt>
<trkpt lat="32.591762543" lon="35.005722046">
  <ele>59.264954</ele>
  <time>2011-07-12T19:19:02Z</time>
  <speed>5.680000</speed>
</trkpt>
<trkpt lat="32.591808319" lon="35.005615234">
  <ele>58.380188</ele>
  <time>2011-07-12T19:19:04Z</time>
  <speed>6.500000</speed>
</trkpt>
<trkpt lat="32.592391968" lon="35.005546570">
  <ele>60.391907</ele>
  <time>2011-07-12T19:19:23Z</time>
  <speed>3.050000</speed>
</trkpt>
<trkpt lat="32.593418121" lon="35.004940033">
  <ele>61.236633</ele>
  <time>2011-07-12T19:19:59Z</time>
  <speed>3.610000</speed>
</trkpt>
<trkpt lat="32.593692780" lon="35.004856110">
  <ele>59.131165</ele>
  <time>2011-07-12T19:20:09Z</time>
  <speed>2.970000</speed>
</trkpt>
<trkpt lat="32.593830109" lon="35.004909515">
  <ele>60.143860</ele>
  <time>2011-07-12T19:20:14Z</time>
  <speed>2.970000</speed>
</trkpt>
<trkpt lat="32.593948364" lon="35.005207062">
  <ele>60.072571</ele>
  <time>2011-07-12T19:20:25Z</time>
  <speed>2.830000</speed>
</trkpt>
<trkpt lat="32.594078064" lon="35.005336761">
  <ele>61.036438</ele>
  <time>2011-07-12T19:20:31Z</time>
  <speed>2.860000</speed>
</trkpt>
<trkpt lat="32.594848633" lon="35.005844116">
  <ele>65.871704</ele>
  <time>2011-07-12T19:21:05Z</time>
  <speed>2.600000</speed>
</trkpt>
<trkpt lat="32.595333099" lon="35.005886078">
  <ele>67.488892</ele>
  <time>2011-07-12T19:21:24Z</time>
  <speed>2.640000</speed>
</trkpt>
<trkpt lat="32.595733643" lon="35.006118774">
  <ele>69.172485</ele>
  <time>2011-07-12T19:21:42Z</time>
  <speed>2.900000</speed>
</trkpt>
<trkpt lat="32.596134186" lon="35.006244659">
  <ele>70.471313</ele>
  <time>2011-07-12T19:21:58Z</time>
  <speed>2.580000</speed>
</trkpt>
<trkpt lat="32.597023010" lon="35.006134033">
  <ele>74.828735</ele>
  <time>2011-07-12T19:22:39Z</time>
  <speed>2.010000</speed>
</trkpt>
<trkpt lat="32.597152710" lon="35.006069183">
  <ele>75.811157</ele>
  <time>2011-07-12T19:22:47Z</time>
  <speed>1.720000</speed>
</trkpt>
<trkpt lat="32.597206116" lon="35.005954742">
  <ele>75.510376</ele>
  <time>2011-07-12T19:22:54Z</time>
  <speed>1.680000</speed>
</trkpt>
<trkpt lat="32.597053528" lon="35.005214691">
  <ele>85.201782</ele>
  <time>2011-07-12T19:23:41Z</time>
  <speed>1.670000</speed>
</trkpt>
<trkpt lat="32.597118378" lon="35.004459381">
  <ele>94.676392</ele>
  <time>2011-07-12T19:24:44Z</time>
  <speed>1.080000</speed>
</trkpt>
<trkpt lat="32.597042084" lon="35.004180908">
  <ele>93.477173</ele>
  <time>2011-07-12T19:25:03Z</time>
  <speed>1.600000</speed>
</trkpt>
<trkpt lat="32.597270966" lon="35.004272461">
  <ele>93.926392</ele>
  <time>2011-07-12T19:25:12Z</time>
  <speed>3.730000</speed>
</trkpt>
<trkpt lat="32.597351074" lon="35.004241943">
  <ele>94.522095</ele>
  <time>2011-07-12T19:25:41Z</time>
  <speed>0.050000</speed>
</trkpt>
</trkseg>
</trk>
</gpx>
